Time;durP1;ratioP1;P1;durP2;ratioP2;P2;SDS_P1;SDS_P2;PMS_P1;PMS_P2;Temp;Humidity;BMP_temperature;BMP_pressure;BME280_temperature;BME280_humidity;BME280_pressure;Samples;Min_cycle;Max_cycle;Signal;HPM_P1;HPM_P2
2022/12/05 00:01:18;;;;;;;34.22;20.08;;;5.20;99.90;;;;;;5121321;27;20453;-59
2022/12/05 00:03:45;;;;;;;32.42;19.67;;;5.20;99.90;;;;;;5110789;28;20562;-58
2022/12/05 00:06:10;;;;;;;35.10;20.60;;;5.20;99.90;;;;;;5110912;27;20041;-59
2022/12/05 00:08:36;;;;;;;29.67;17.83;;;5.20;99.90;;;;;;5116798;27;20515;-60
2022/12/05 00:11:09;;;;;;;36.17;19.27;;;5.20;99.90;;;;;;5131797;27;20436;-59
2022/12/05 00:13:35;;;;;;;30.13;18.25;;;5.20;99.90;;;;;;5110365;28;20039;-59
2022/12/05 00:16:01;;;;;;;32.13;19.60;;;5.20;99.90;;;;;;5123318;27;20272;-59
2022/12/05 00:18:30;;;;;;;35.70;18.80;;;5.20;99.90;;;;;;5131346;27;20054;-59
2022/12/05 00:20:55;;;;;;;32.97;19.63;;;5.20;99.90;;;;;;5113236;27;20039;-59
2022/12/05 00:23:21;;;;;;;30.98;18.98;;;5.20;99.90;;;;;;5118467;27;20578;-60
2022/12/05 00:25:47;;;;;;;32.35;19.58;;;5.20;99.90;;;;;;5126485;27;20036;-60
2022/12/05 00:28:12;;;;;;;27.70;17.45;;;5.20;99.90;;;;;;5122325;27;20042;-59
2022/12/05 00:30:41;;;;;;;32.50;19.08;;;5.20;99.90;;;;;;5121333;27;20409;-58
2022/12/05 00:33:07;;;;;;;33.67;19.70;;;5.30;99.90;;;;;;5075818;28;20135;-59
2022/12/05 00:35:33;;;;;;;33.08;18.85;;;5.20;99.90;;;;;;5131079;27;20570;-58
2022/12/05 00:37:58;;;;;;;28.73;18.40;;;5.20;99.90;;;;;;5111679;27;20055;-58
2022/12/05 00:40:24;;;;;;;34.30;18.70;;;5.30;99.90;;;;;;5111056;28;20036;-59
2022/12/05 00:42:53;;;;;;;28.75;17.48;;;5.30;99.90;;;;;;5110331;28;20508;-59
2022/12/05 00:45:19;;;;;;;31.98;18.95;;;5.30;99.90;;;;;;5114040;27;20035;-58
2022/12/05 00:47:44;;;;;;;29.55;18.38;;;5.30;99.90;;;;;;5127114;27;20085;-58
2022/12/05 00:50:10;;;;;;;30.73;17.77;;;5.30;99.90;;;;;;5126672;27;20083;-59
2022/12/05 00:52:36;;;;;;;28.60;17.25;;;5.30;99.90;;;;;;5110682;28;20233;-59
2022/12/05 00:55:01;;;;;;;37.20;19.63;;;5.30;99.90;;;;;;5126106;27;20039;-59
2022/12/05 00:57:27;;;;;;;32.75;19.67;;;5.30;99.90;;;;;;5110661;28;20489;-59
2022/12/05 00:59:53;;;;;;;32.08;20.20;;;5.30;99.90;;;;;;5114102;28;20074;-60
2022/12/05 01:02:19;;;;;;;38.60;22.20;;;5.30;99.90;;;;;;5127786;27;20039;-59
2022/12/05 01:04:44;;;;;;;34.83;20.95;;;5.40;99.90;;;;;;5118065;27;20043;-58
2022/12/05 01:07:10;;;;;;;32.75;19.92;;;5.40;99.90;;;;;;5117774;27;20095;-57
2022/12/05 01:09:36;;;;;;;36.00;21.08;;;5.40;99.90;;;;;;5115571;28;20059;-59
2022/12/05 01:12:02;;;;;;;35.17;20.05;;;5.50;99.90;;;;;;5116328;27;20051;-60
2022/12/05 01:14:27;;;;;;;37.47;21.70;;;5.40;99.90;;;;;;5122601;22;20046;-59
2022/12/05 01:16:54;;;;;;;34.67;19.70;;;5.50;99.90;;;;;;5076422;28;20379;-59
2022/12/05 01:19:26;;;;;;;32.35;20.13;;;5.40;99.90;;;;;;5070248;28;20044;-58
2022/12/05 01:21:52;;;;;;;36.30;21.10;;;5.40;99.90;;;;;;5081836;28;20048;-56
2022/12/05 01:24:19;;;;;;;32.40;19.60;;;5.40;99.90;;;;;;5065493;28;20414;-58
2022/12/05 01:26:45;;;;;;;32.83;19.25;;;5.40;99.90;;;;;;5070014;28;20031;-57
2022/12/05 01:29:13;;;;;;;31.17;19.15;;;5.40;99.90;;;;;;5068673;28;20059;-59
2022/12/05 01:31:39;;;;;;;31.48;18.40;;;5.40;99.90;;;;;;5068327;28;20054;-57
2022/12/05 01:34:07;;;;;;;33.72;18.85;;;5.40;99.90;;;;;;5063577;28;20546;-58
2022/12/05 01:36:33;;;;;;;34.97;19.23;;;5.40;99.90;;;;;;5057274;28;20137;-58
2022/12/05 01:39:02;;;;;;;34.35;18.38;;;5.50;99.90;;;;;;5068583;28;20119;-59
2022/12/05 01:41:31;;;;;;;31.42;18.60;;;5.50;99.90;;;;;;5086783;28;20036;-58
2022/12/05 01:44:05;;;;;;;33.63;19.52;;;5.50;99.90;;;;;;5065617;28;20101;-58
2022/12/05 01:46:33;;;;;;;31.35;18.30;;;5.50;99.90;;;;;;5079256;28;20043;-56
2022/12/05 01:49:13;;;;;;;25.77;16.92;;;5.50;99.90;;;;;;5070396;28;20040;-58
2022/12/05 01:51:42;;;;;;;31.02;19.67;;;5.50;99.90;;;;;;5065559;28;20471;-59
2022/12/05 01:54:09;;;;;;;29.08;17.60;;;5.50;99.90;;;;;;5085223;28;20402;-57
2022/12/05 01:56:35;;;;;;;34.17;18.42;;;5.60;99.90;;;;;;5084223;28;20040;-59
2022/12/05 01:59:04;;;;;;;30.92;17.38;;;5.60;99.90;;;;;;5085244;28;20059;-59
2022/12/05 02:01:32;;;;;;;29.70;16.45;;;5.60;99.90;;;;;;5069187;28;20036;-58
2022/12/05 02:03:58;;;;;;;29.00;17.48;;;5.60;99.90;;;;;;5027461;28;20050;-59
2022/12/05 02:06:26;;;;;;;30.58;18.63;;;5.60;99.90;;;;;;5068204;28;20422;-59
2022/12/05 02:08:53;;;;;;;30.52;17.23;;;5.60;99.90;;;;;;5070851;28;20070;-59
2022/12/05 02:11:20;;;;;;;23.75;16.58;;;5.60;99.90;;;;;;5060571;28;20036;-58
2022/12/05 02:14:17;;;;;;;28.67;16.27;;;5.60;99.90;;;;;;5061769;28;20079;-58
2022/12/05 02:16:56;;;;;;;28.23;15.70;;;5.60;99.90;;;;;;5064226;28;20048;-58
2022/12/05 02:19:24;;;;;;;28.92;16.00;;;5.60;99.90;;;;;;5064566;28;20039;-59
2022/12/05 02:22:05;;;;;;;27.35;16.08;;;5.60;99.90;;;;;;5065186;28;20044;-59
2022/12/05 02:24:50;;;;;;;27.42;14.52;;;5.70;99.90;;;;;;5066424;28;20044;-59
2022/12/05 02:27:44;;;;;;;24.63;14.88;;;5.70;99.90;;;;;;5079893;28;20089;-59
2022/12/05 02:30:24;;;;;;;20.30;13.50;;;5.70;99.90;;;;;;5065269;28;20048;-59
2022/12/05 02:33:26;;;;;;;26.10;14.25;;;5.70;99.90;;;;;;5060891;28;20028;-58
2022/12/05 02:36:21;;;;;;;22.02;12.95;;;5.70;99.90;;;;;;5066520;28;20042;-58
2022/12/05 02:39:06;;;;;;;22.05;12.52;;;5.70;99.90;;;;;;5059637;28;20557;-59
2022/12/05 02:41:47;;;;;;;20.52;12.88;;;5.70;99.90;;;;;;5079682;28;20051;-59
2022/12/05 02:44:28;;;;;;;22.58;12.02;;;5.70;99.90;;;;;;5059497;28;20047;-57
2022/12/05 02:46:55;;;;;;;17.38;10.95;;;5.70;99.90;;;;;;5045725;28;20044;-58
2022/12/05 02:49:25;;;;;;;17.70;10.55;;;5.80;99.90;;;;;;5065518;28;20044;-56
2022/12/05 02:51:56;;;;;;;20.08;11.40;;;6.00;99.90;;;;;;5068733;28;20181;-58
2022/12/05 02:54:30;;;;;;;16.90;10.00;;;5.80;99.90;;;;;;5060432;28;20040;-56
2022/12/05 02:56:57;;;;;;;15.38;9.63;;;5.80;99.90;;;;;;5069331;28;20040;-59
2022/12/05 02:59:23;;;;;;;14.82;9.10;;;5.80;99.90;;;;;;5062966;28;20127;-56
2022/12/05 03:01:49;;;;;;;17.90;9.70;;;5.80;99.90;;;;;;5066245;28;20470;-58
2022/12/05 03:04:17;;;;;;;15.80;9.20;;;5.80;99.90;;;;;;5056935;28;20452;-55
2022/12/05 03:06:57;;;;;;;16.70;9.77;;;6.00;99.90;;;;;;5076361;28;20111;-56
2022/12/05 03:09:29;;;;;;;14.80;9.45;;;5.90;99.90;;;;;;5047302;28;20040;-54
2022/12/05 03:12:21;;;;;;;12.80;8.45;;;5.90;99.90;;;;;;5070559;28;20044;-57
2022/12/05 03:15:00;;;;;;;13.40;8.57;;;5.90;99.90;;;;;;5067359;28;20052;-54
2022/12/05 03:17:30;;;;;;;16.73;8.88;;;5.90;99.90;;;;;;5047599;28;20044;-54
2022/12/05 03:20:05;;;;;;;15.70;9.75;;;5.90;99.90;;;;;;5060039;28;20048;-58
2022/12/05 03:22:37;;;;;;;15.93;9.43;;;5.90;99.90;;;;;;5064184;28;20044;-55
2022/12/05 03:25:03;;;;;;;14.23;9.27;;;5.80;99.90;;;;;;5062756;28;20553;-57
2022/12/05 03:27:38;;;;;;;16.38;9.32;;;5.90;99.90;;;;;;5085735;28;20122;-56
2022/12/05 03:30:11;;;;;;;17.92;9.70;;;5.90;99.90;;;;;;5062043;28;20048;-57
2022/12/05 03:32:59;;;;;;;15.52;9.20;;;5.90;99.90;;;;;;5065440;28;20075;-54
2022/12/05 03:35:40;;;;;;;16.60;8.90;;;5.90;99.90;;;;;;5067816;28;20052;-53
2022/12/05 03:38:28;;;;;;;13.63;8.43;;;5.90;99.90;;;;;;5071091;28;20051;-56
2022/12/05 03:41:18;;;;;;;11.75;7.70;;;5.90;99.90;;;;;;5081826;28;20044;-57
2022/12/05 03:44:04;;;;;;;12.63;8.13;;;5.90;99.90;;;;;;5049088;28;20471;-58
2022/12/05 03:46:51;;;;;;;17.58;8.27;;;5.90;99.90;;;;;;5068937;28;20391;-57
2022/12/05 03:49:23;;;;;;;13.57;8.75;;;5.90;99.90;;;;;;5060333;28;20525;-56
2022/12/05 03:51:56;;;;;;;13.68;8.13;;;5.90;99.90;;;;;;5057978;28;20039;-54
2022/12/05 03:54:53;;;;;;;14.53;8.10;;;5.90;99.90;;;;;;5059116;28;20040;-56
2022/12/05 03:57:32;;;;;;;13.65;8.85;;;5.90;99.90;;;;;;5063570;28;20044;-57
2022/12/05 03:59:59;;;;;;;12.80;8.25;;;5.90;99.90;;;;;;5076812;28;20033;-55
2022/12/05 04:02:54;;;;;;;14.55;8.25;;;5.90;99.90;;;;;;5081090;28;20078;-57
2022/12/05 04:05:29;;;;;;;14.65;8.10;;;5.90;99.90;;;;;;5058917;28;20036;-56
2022/12/05 04:08:03;;;;;;;13.25;7.75;;;5.80;99.90;;;;;;5063204;28;20157;-55
2022/12/05 04:10:47;;;;;;;14.23;7.72;;;5.90;99.90;;;;;;5054806;28;20047;-55
2022/12/05 04:13:25;;;;;;;21.25;8.82;;;6.00;99.90;;;;;;5066551;28;20048;-55
2022/12/05 04:18:50;;;;;;;15.32;9.02;;;5.90;99.90;;;;;;5056501;28;20056;-55
2022/12/05 04:21:37;;;;;;;21.95;9.27;;;5.90;99.90;;;;;;5079777;28;20571;-56
2022/12/05 04:27:24;;;;;;;19.52;9.25;;;5.90;99.90;;;;;;5066441;28;20039;-54
2022/12/05 04:30:01;;;;;;;17.30;10.30;;;5.90;99.90;;;;;;5064553;28;20046;-56
2022/12/05 04:32:36;;;;;;;17.40;9.73;;;5.90;99.90;;;;;;5052149;28;20036;-57
2022/12/05 04:35:10;;;;;;;15.13;9.32;;;5.90;99.90;;;;;;5058326;28;20040;-57
2022/12/05 04:37:41;;;;;;;20.70;10.95;;;5.90;99.90;;;;;;5065220;28;20043;-58
2022/12/05 04:40:14;;;;;;;17.73;10.00;;;5.90;99.90;;;;;;5043700;28;20134;-60
2022/12/05 04:42:42;;;;;;;16.60;10.52;;;5.90;99.90;;;;;;5039715;28;20068;-57
2022/12/05 04:45:13;;;;;;;19.42;10.70;;;5.90;99.90;;;;;;5056476;28;20075;-58
2022/12/05 04:47:45;;;;;;;18.80;11.23;;;5.90;99.90;;;;;;5066602;28;20449;-56
2022/12/05 04:50:12;;;;;;;20.95;10.82;;;5.90;99.90;;;;;;5063247;28;20113;-56
2022/12/05 04:52:40;;;;;;;23.83;11.80;;;5.90;99.90;;;;;;5046427;28;20071;-55
2022/12/05 04:55:19;;;;;;;21.40;11.25;;;5.90;99.90;;;;;;5079084;28;20048;-56
2022/12/05 04:58:06;;;;;;;18.35;10.75;;;5.90;99.90;;;;;;5048020;28;20044;-56
2022/12/05 05:00:49;;;;;;;24.23;11.95;;;5.90;99.90;;;;;;5063623;28;20044;-55
2022/12/05 05:03:31;;;;;;;21.83;11.48;;;5.90;99.90;;;;;;5051703;28;20119;-58
2022/12/05 05:05:57;;;;;;;21.13;12.38;;;5.90;99.90;;;;;;5061374;28;20036;-55
2022/12/05 05:08:27;;;;;;;18.92;10.90;;;5.90;99.90;;;;;;5059703;28;20442;-55
2022/12/05 05:11:14;;;;;;;19.50;11.38;;;5.90;99.90;;;;;;5065173;28;20039;-58
2022/12/05 05:13:40;;;;;;;17.30;12.10;;;5.90;99.90;;;;;;5051430;28;20512;-53
2022/12/05 05:16:06;;;;;;;19.08;11.88;;;5.90;99.90;;;;;;5031809;28;20036;-53
2022/12/05 05:18:32;;;;;;;23.88;11.52;;;5.90;99.90;;;;;;5052156;28;20111;-53
2022/12/05 05:20:58;;;;;;;20.83;11.07;;;5.90;99.90;;;;;;5043377;28;20065;-57
2022/12/05 05:23:24;;;;;;;22.02;11.65;;;5.90;99.90;;;;;;5064133;28;20075;-58
2022/12/05 05:25:54;;;;;;;20.73;10.85;;;5.90;99.90;;;;;;5061837;28;20044;-56
2022/12/05 05:28:21;;;;;;;17.15;10.85;;;6.00;99.90;;;;;;5047707;28;20409;-55
2022/12/05 05:30:47;;;;;;;17.95;10.40;;;6.00;99.90;;;;;;5082154;28;20116;-53
2022/12/05 05:33:13;;;;;;;22.40;11.73;;;6.00;99.90;;;;;;5055955;28;20479;-55
2022/12/05 05:35:38;;;;;;;22.23;11.35;;;6.00;99.90;;;;;;5063858;28;20086;-57
2022/12/05 05:38:04;;;;;;;19.98;11.43;;;6.00;99.90;;;;;;5060173;28;22136;-56
2022/12/05 05:40:30;;;;;;;18.60;11.27;;;6.00;99.90;;;;;;5046797;28;20040;-57
2022/12/05 05:42:56;;;;;;;18.65;11.50;;;6.00;99.90;;;;;;5063461;28;20399;-57
2022/12/05 05:45:21;;;;;;;23.17;11.52;;;6.00;99.90;;;;;;5048907;28;20028;-56
2022/12/05 05:47:48;;;;;;;17.05;11.18;;;6.00;99.90;;;;;;5083801;28;20046;-56
2022/12/05 05:50:14;;;;;;;16.40;11.02;;;6.00;99.90;;;;;;5066572;28;20040;-53
2022/12/05 05:52:40;;;;;;;18.50;10.48;;;6.00;99.90;;;;;;5052649;28;20096;-57
2022/12/05 05:55:07;;;;;;;20.58;9.68;;;6.00;99.90;;;;;;5083924;28;20044;-56
2022/12/05 05:57:34;;;;;;;19.95;10.95;;;6.00;99.90;;;;;;5051900;28;20071;-55
2022/12/05 06:00:00;;;;;;;18.05;10.45;;;6.00;99.90;;;;;;5082474;28;20494;-56
2022/12/05 06:02:32;;;;;;;18.27;10.48;;;6.00;99.90;;;;;;5063453;28;20036;-56
2022/12/05 06:04:58;;;;;;;17.40;10.07;;;6.00;99.90;;;;;;5066749;28;20115;-55
2022/12/05 06:07:23;;;;;;;19.75;10.90;;;6.00;99.90;;;;;;5068728;28;20153;-57
2022/12/05 06:09:49;;;;;;;18.52;10.68;;;6.00;99.90;;;;;;5048418;28;20043;-56
2022/12/05 06:12:15;;;;;;;19.20;10.45;;;6.00;99.90;;;;;;5064274;28;20041;-58
2022/12/05 06:14:43;;;;;;;18.30;10.05;;;6.00;99.90;;;;;;5070216;28;20032;-58
2022/12/05 06:17:09;;;;;;;20.13;9.57;;;6.00;99.90;;;;;;5064864;28;20036;-57
2022/12/05 06:19:35;;;;;;;17.40;10.15;;;6.00;99.90;;;;;;5067460;28;20040;-58
2022/12/05 06:22:00;;;;;;;18.63;10.48;;;6.00;99.90;;;;;;5087828;28;20418;-60
2022/12/05 06:24:26;;;;;;;21.80;9.90;;;6.00;99.90;;;;;;5064179;28;20114;-57
2022/12/05 06:26:52;;;;;;;16.98;9.80;;;6.00;99.90;;;;;;5064963;28;20062;-54
2022/12/05 06:29:20;;;;;;;17.35;10.35;;;6.00;99.90;;;;;;5082489;28;20052;-55
2022/12/05 06:31:49;;;;;;;22.60;10.32;;;6.00;99.90;;;;;;5044366;28;20123;-57
2022/12/05 06:34:16;;;;;;;17.48;9.40;;;6.00;99.90;;;;;;5083629;28;20127;-58
2022/12/05 06:36:41;;;;;;;18.35;10.07;;;6.00;99.90;;;;;;5085478;28;20471;-57
2022/12/05 06:39:10;;;;;;;17.27;10.00;;;6.00;99.90;;;;;;5060821;28;20463;-57
2022/12/05 06:41:36;;;;;;;14.98;9.55;;;6.00;99.90;;;;;;5064331;28;20052;-57
2022/12/05 06:44:05;;;;;;;18.27;9.35;;;6.00;99.90;;;;;;5063841;28;20051;-58
2022/12/05 06:46:30;;;;;;;16.05;9.35;;;6.00;99.90;;;;;;5048244;28;20276;-57
2022/12/05 06:49:00;;;;;;;17.50;9.45;;;6.00;99.90;;;;;;5070033;28;20554;-56
2022/12/05 06:51:26;;;;;;;19.23;8.95;;;6.00;99.90;;;;;;5056028;28;20036;-55
2022/12/05 06:53:51;;;;;;;14.93;9.40;;;6.00;99.90;;;;;;5066374;28;20043;-55
2022/12/05 06:56:19;;;;;;;14.38;8.48;;;6.00;99.90;;;;;;5078717;28;20028;-54
2022/12/05 06:58:47;;;;;;;17.30;10.02;;;6.00;99.90;;;;;;5063454;28;20110;-56
2022/12/05 07:04:09;;;;;;;15.38;9.05;;;6.00;99.90;;;;;;5066892;28;20044;-54
2022/12/05 07:06:35;;;;;;;18.55;8.98;;;6.00;99.90;;;;;;5066793;28;20067;-56
2022/12/05 07:09:01;;;;;;;19.88;10.35;;;6.00;99.90;;;;;;5058332;28;20036;-57
2022/12/05 07:11:27;;;;;;;17.52;9.80;;;6.00;99.90;;;;;;5062858;28;20117;-57
2022/12/05 07:13:52;;;;;;;17.65;9.50;;;6.00;99.90;;;;;;5063550;28;20473;-58
2022/12/05 07:16:18;;;;;;;15.18;8.70;;;6.00;99.90;;;;;;5099869;22;20047;-58
2022/12/05 07:18:44;;;;;;;18.38;9.57;;;6.00;99.90;;;;;;5088100;27;20035;-57
2022/12/05 07:21:12;;;;;;;19.67;9.48;;;6.00;99.90;;;;;;5089704;27;20754;-55
2022/12/05 07:23:40;;;;;;;16.05;9.35;;;6.00;99.90;;;;;;5099291;27;20042;-57
2022/12/05 07:26:11;;;;;;;20.58;10.20;;;6.00;99.90;;;;;;5083517;27;20499;-53
2022/12/05 07:28:37;;;;;;;20.65;9.48;;;6.10;99.90;;;;;;5090129;27;20051;-55
2022/12/05 07:31:08;;;;;;;26.38;10.05;;;6.00;99.90;;;;;;5104707;27;20453;-56
2022/12/05 07:33:35;;;;;;;20.95;8.93;;;6.00;99.90;;;;;;5098599;27;20223;-57
2022/12/05 07:36:04;;;;;;;20.95;8.73;;;6.00;99.90;;;;;;5110055;27;20035;-56
2022/12/05 07:38:30;;;;;;;17.92;9.02;;;6.00;99.90;;;;;;5103585;27;20062;-57
2022/12/05 07:40:56;;;;;;;14.63;8.07;;;6.10;99.90;;;;;;5106798;27;20035;-56
2022/12/05 07:43:22;;;;;;;25.38;9.00;;;6.10;99.90;;;;;;5106479;27;20031;-57
2022/12/05 07:45:48;;;;;;;23.98;9.13;;;6.10;99.90;;;;;;5083417;27;20031;-55
2022/12/05 07:48:14;;;;;;;21.90;8.48;;;6.00;99.90;;;;;;5106226;27;20310;-57
2022/12/05 07:50:40;;;;;;;16.88;8.07;;;6.10;99.90;;;;;;5103512;27;20035;-58
2022/12/05 07:53:05;;;;;;;21.08;8.55;;;6.10;99.90;;;;;;5120926;27;20091;-57
2022/12/05 07:55:31;;;;;;;15.52;7.70;;;6.10;99.90;;;;;;5103032;27;20031;-57
2022/12/05 07:57:57;;;;;;;27.85;8.23;;;6.10;99.90;;;;;;5088500;27;20052;-57
2022/12/05 08:00:22;;;;;;;20.15;8.55;;;6.10;99.90;;;;;;5082860;27;20106;-56
2022/12/05 08:02:48;;;;;;;16.92;7.72;;;6.10;99.90;;;;;;5098525;27;20047;-56
2022/12/05 08:05:14;;;;;;;20.98;9.07;;;6.10;99.90;;;;;;5104618;27;22136;-54
2022/12/05 08:07:40;;;;;;;21.73;8.98;;;6.10;99.90;;;;;;5103515;27;20038;-55
2022/12/05 08:10:08;;;;;;;20.52;7.65;;;6.10;99.90;;;;;;5102134;27;20039;-53
2022/12/05 08:12:34;;;;;;;18.70;7.65;;;6.10;99.90;;;;;;5104857;27;20047;-54
2022/12/05 08:14:59;;;;;;;17.88;8.02;;;6.20;99.90;;;;;;5102797;27;20035;-56
2022/12/05 08:17:28;;;;;;;12.77;7.45;;;6.10;99.90;;;;;;5102726;27;20039;-58
2022/12/05 08:19:53;;;;;;;20.52;7.90;;;6.10;99.90;;;;;;5120086;27;20489;-57
2022/12/05 08:22:19;;;;;;;16.30;7.57;;;6.20;99.90;;;;;;5103758;27;20111;-57
2022/12/05 08:24:45;;;;;;;16.13;7.75;;;6.20;99.90;;;;;;5099794;27;20039;-56
2022/12/05 08:27:10;;;;;;;16.00;7.97;;;6.20;99.90;;;;;;5103367;27;20417;-56
2022/12/05 08:29:36;;;;;;;23.48;8.55;;;6.20;99.90;;;;;;5103220;27;20602;-57
2022/12/05 08:32:02;;;;;;;18.20;8.48;;;6.20;99.90;;;;;;5119306;27;20339;-55
2022/12/05 08:34:28;;;;;;;20.85;8.25;;;6.20;99.90;;;;;;5118010;27;20042;-56
2022/12/05 08:36:53;;;;;;;17.73;7.97;;;6.20;99.90;;;;;;5106533;27;20039;-54
2022/12/05 08:39:19;;;;;;;16.90;8.52;;;6.20;99.90;;;;;;5107148;27;20397;-55
2022/12/05 08:41:46;;;;;;;18.52;7.50;;;6.20;99.90;;;;;;5088373;27;20039;-57
2022/12/05 08:44:15;;;;;;;15.88;8.25;;;6.20;99.90;;;;;;5106141;27;20050;-54
2022/12/05 08:46:43;;;;;;;18.83;8.82;;;6.20;99.90;;;;;;5088627;27;20042;-57
2022/12/05 08:49:10;;;;;;;16.45;8.07;;;6.20;99.90;;;;;;5088075;28;20131;-55
2022/12/05 08:51:36;;;;;;;22.17;8.88;;;6.30;99.90;;;;;;5109123;28;20054;-57
2022/12/05 08:54:03;;;;;;;15.60;8.95;;;6.30;99.90;;;;;;5104524;27;20103;-56
2022/12/05 08:56:29;;;;;;;19.05;9.13;;;6.30;99.90;;;;;;5106160;27;20067;-55
2022/12/05 08:58:55;;;;;;;17.45;8.07;;;6.20;99.90;;;;;;5110605;27;20516;-57
2022/12/05 09:01:21;;;;;;;19.85;8.20;;;6.30;99.90;;;;;;5107909;28;20047;-57
2022/12/05 09:03:48;;;;;;;19.50;8.02;;;6.30;99.90;;;;;;5087870;28;20119;-56
2022/12/05 09:06:17;;;;;;;20.48;7.55;;;6.30;99.90;;;;;;5115580;27;20042;-57
2022/12/05 09:08:44;;;;;;;15.63;7.53;;;6.30;99.90;;;;;;5118107;28;20094;-58
2022/12/05 09:11:18;;;;;;;20.83;9.27;;;6.30;99.90;;;;;;5103982;28;20039;-57
2022/12/05 09:13:45;;;;;;;17.38;8.13;;;6.30;99.90;;;;;;5103901;28;20042;-58
2022/12/05 09:16:15;;;;;;;16.08;8.38;;;6.30;99.90;;;;;;5108268;28;20058;-56
2022/12/05 09:18:41;;;;;;;21.80;10.35;;;6.30;99.90;;;;;;5103615;28;20471;-57
2022/12/05 09:21:16;;;;;;;24.73;8.70;;;6.30;99.90;;;;;;5088279;27;20043;-56
2022/12/05 09:23:43;;;;;;;16.20;7.28;;;6.30;99.90;;;;;;5135726;27;20260;-58
2022/12/05 09:26:11;;;;;;;20.83;8.13;;;6.30;99.90;;;;;;5106271;27;20039;-57
2022/12/05 09:28:37;;;;;;;14.27;7.55;;;6.30;99.90;;;;;;5113204;27;20043;-57
2022/12/05 09:31:06;;;;;;;15.43;7.68;;;6.30;99.90;;;;;;5084187;27;20051;-57
2022/12/05 09:33:34;;;;;;;16.38;7.63;;;6.30;99.90;;;;;;5103318;28;20032;-55
2022/12/05 09:36:21;;;;;;;17.55;7.80;;;6.30;99.90;;;;;;5123225;27;20069;-58
2022/12/05 09:38:47;;;;;;;13.70;7.22;;;6.40;99.90;;;;;;5093278;27;20081;-58
2022/12/05 09:44:57;;;;;;;17.27;8.38;;;6.40;99.90;;;;;;5108263;27;20067;-58
2022/12/05 09:47:32;;;;;;;17.13;7.78;;;6.30;99.90;;;;;;5122951;27;20154;-57
2022/12/05 09:50:21;;;;;;;21.70;8.55;;;6.30;99.90;;;;;;5101110;27;20043;-56
2022/12/05 09:53:08;;;;;;;21.15;8.45;;;6.30;99.90;;;;;;5101743;27;20042;-56
2022/12/05 09:55:51;;;;;;;17.10;8.10;;;6.40;99.90;;;;;;5108344;27;20046;-56
2022/12/05 09:58:36;;;;;;;19.48;7.90;;;6.40;99.90;;;;;;5103792;27;20150;-57
2022/12/05 10:01:30;;;;;;;18.42;7.75;;;6.40;99.90;;;;;;5108302;27;20043;-58
2022/12/05 10:04:21;;;;;;;18.73;8.93;;;6.40;99.90;;;;;;5093451;27;20043;-58
2022/12/05 10:07:06;;;;;;;17.42;8.30;;;6.40;99.90;;;;;;5098273;27;20043;-57
2022/12/05 10:09:31;;;;;;;;;;;6.40;99.90;;;;;;5087701;27;20058;-57
2022/12/05 10:12:18;;;;;;;21.48;9.02;;;6.40;99.90;;;;;;5083400;27;19915;-58
2022/12/05 10:14:50;;;;;;;21.55;7.65;;;6.40;99.90;;;;;;5105073;27;20105;-58
2022/12/05 10:17:25;;;;;;;18.85;8.45;;;6.40;99.90;;;;;;5102363;27;20132;-57
2022/12/05 10:19:54;;;;;;;20.77;9.30;;;6.40;99.90;;;;;;5103246;27;20126;-58
2022/12/05 10:22:39;;;;;;;18.83;8.43;;;6.40;99.90;;;;;;5086199;27;20034;-58
2022/12/05 10:25:06;;;;;;;21.98;8.38;;;6.40;99.90;;;;;;5121147;27;20544;-56
2022/12/05 10:27:36;;;;;;;18.85;9.40;;;6.40;99.90;;;;;;5107815;27;20066;-57
2022/12/05 10:30:06;;;;;;;16.98;8.27;;;6.40;99.90;;;;;;5106287;27;20249;-57
2022/12/05 10:32:53;;;;;;;13.52;8.05;;;6.50;99.90;;;;;;5075733;27;20035;-56
2022/12/05 10:35:25;;;;;;;16.58;8.13;;;6.50;99.90;;;;;;5094617;27;20451;-54
2022/12/05 10:37:55;;;;;;;17.45;9.75;;;6.50;99.90;;;;;;5113401;27;20040;-58
2022/12/05 10:40:21;;;;;;;18.85;9.50;;;6.50;99.90;;;;;;5092717;27;20050;-54
2022/12/05 10:42:49;;;;;;;20.25;10.35;;;6.50;99.90;;;;;;5095983;27;20322;-55
2022/12/05 10:45:21;;;;;;;22.58;9.85;;;6.20;99.90;;;;;;5085608;27;20617;-56
2022/12/05 10:47:48;;;;;;;19.20;8.90;;;6.50;99.90;;;;;;5100149;27;20800;-56
2022/12/05 10:50:20;;;;;;;17.60;8.52;;;6.50;99.90;;;;;;5103853;27;20085;-57
2022/12/05 10:52:47;;;;;;;22.42;9.15;;;6.50;99.90;;;;;;5102385;27;20039;-57
2022/12/05 10:55:16;;;;;;;21.35;9.63;;;6.50;99.90;;;;;;5119319;27;20100;-57
2022/12/05 10:57:45;;;;;;;18.38;8.32;;;6.50;99.90;;;;;;5114986;27;20086;-56
2022/12/05 11:00:14;;;;;;;20.23;8.68;;;6.50;99.90;;;;;;5101297;27;20050;-56
2022/12/05 11:02:41;;;;;;;17.13;9.02;;;6.50;99.90;;;;;;5082225;27;20036;-57
2022/12/05 11:05:07;;;;;;;18.92;8.73;;;6.50;99.90;;;;;;5081281;27;20055;-56
2022/12/05 11:07:54;;;;;;;18.92;8.88;;;6.50;99.90;;;;;;5094772;27;20042;-55
2022/12/05 11:10:29;;;;;;;16.10;8.40;;;6.50;99.90;;;;;;5111494;27;20370;-55
2022/12/05 11:12:56;;;;;;;20.38;8.80;;;6.50;99.90;;;;;;5101142;27;20043;-58
2022/12/05 11:15:25;;;;;;;27.27;9.30;;;6.50;99.90;;;;;;5109415;27;20126;-57
2022/12/05 11:17:53;;;;;;;20.60;9.60;;;6.50;99.90;;;;;;5100451;27;20040;-56
2022/12/05 11:20:19;;;;;;;18.60;9.15;;;6.50;99.90;;;;;;5104457;27;20038;-58
2022/12/05 11:22:50;;;;;;;17.52;8.75;;;6.50;99.90;;;;;;5100241;27;22344;-56
2022/12/05 11:25:31;;;;;;;22.60;8.68;;;6.50;99.90;;;;;;5101438;27;20094;-56
2022/12/05 11:28:00;;;;;;;16.42;8.10;;;6.50;99.90;;;;;;5086692;27;20552;-56
2022/12/05 11:30:28;;;;;;;18.02;9.07;;;6.50;99.90;;;;;;5094109;27;20042;-58
2022/12/05 11:33:22;;;;;;;22.02;9.43;;;6.50;99.90;;;;;;5102949;27;20127;-57
2022/12/05 11:35:50;;;;;;;20.02;8.85;;;6.50;99.90;;;;;;5096910;27;20615;-57
2022/12/05 11:38:20;;;;;;;20.58;10.50;;;6.50;99.90;;;;;;5104242;27;20134;-56
2022/12/05 11:41:19;;;;;;;24.52;8.63;;;6.50;99.90;;;;;;5100492;27;20066;-55
2022/12/05 11:44:00;;;;;;;23.75;10.63;;;6.50;99.90;;;;;;5099484;28;20065;-57
2022/12/05 11:46:38;;;;;;;21.38;9.63;;;6.50;99.90;;;;;;5100066;27;22519;-57
2022/12/05 11:49:31;;;;;;;20.73;8.98;;;6.50;99.90;;;;;;5099811;27;20089;-56
2022/12/05 11:52:24;;;;;;;17.33;7.68;;;6.40;99.90;;;;;;5083008;27;20066;-57
2022/12/05 11:55:17;;;;;;;16.92;8.07;;;6.50;99.90;;;;;;5103292;27;20046;-57
2022/12/05 11:57:55;;;;;;;21.08;7.82;;;6.40;99.90;;;;;;5101504;27;20083;-57
2022/12/05 12:00:23;;;;;;;13.38;7.70;;;6.40;99.90;;;;;;5099717;27;20474;-58
2022/12/05 12:02:52;;;;;;;29.65;8.07;;;6.40;99.90;;;;;;5094627;27;20039;-57
2022/12/05 12:05:21;;;;;;;18.85;8.45;;;6.40;99.90;;;;;;5100202;27;20121;-58
2022/12/05 12:07:57;;;;;;;17.60;8.02;;;6.40;99.90;;;;;;5102752;27;20062;-59
2022/12/05 12:10:34;;;;;;;19.20;8.02;;;6.40;99.90;;;;;;5119869;27;20034;-57
2022/12/05 12:13:02;;;;;;;20.60;7.88;;;6.40;99.90;;;;;;5096103;27;20031;-54
2022/12/05 12:15:45;;;;;;;18.27;8.10;;;6.40;99.90;;;;;;5101714;27;20122;-58
2022/12/05 12:18:32;;;;;;;17.42;6.97;;;6.40;99.90;;;;;;5097463;27;20398;-56
2022/12/05 12:21:27;;;;;;;14.55;7.32;;;6.40;99.90;;;;;;5101240;27;20138;-55
2022/12/05 12:24:11;;;;;;;27.02;7.32;;;6.40;99.90;;;;;;5098209;27;20063;-57
2022/12/05 12:26:48;;;;;;;19.17;6.75;;;6.40;99.90;;;;;;5085525;27;20427;-58
2022/12/05 12:29:51;;;;;;;16.58;7.07;;;6.40;99.90;;;;;;5097230;27;20452;-57
2022/12/05 12:32:52;;;;;;;16.50;6.65;;;6.40;99.90;;;;;;5109875;27;20406;-54
2022/12/05 12:35:43;;;;;;;17.75;6.60;;;6.40;99.90;;;;;;5106539;27;20074;-56
2022/12/05 12:39:00;;;;;;;19.52;6.72;;;6.40;99.90;;;;;;5100119;27;20035;-58
2022/12/05 12:41:56;;;;;;;17.55;7.20;;;6.30;99.90;;;;;;5056383;27;20046;-55
2022/12/05 12:44:43;;;;;;;17.90;6.70;;;6.40;99.90;;;;;;5115822;27;20073;-56
2022/12/05 12:47:38;;;;;;;21.10;7.47;;;6.40;99.90;;;;;;5101113;27;20460;-58
2022/12/05 12:50:21;;;;;;;18.63;6.47;;;6.40;99.90;;;;;;5100959;27;20398;-58
2022/12/05 12:53:17;;;;;;;18.67;6.78;;;6.40;99.90;;;;;;5101762;28;20495;-58
2022/12/05 12:56:28;;;;;;;10.98;5.40;;;6.40;99.90;;;;;;5102527;28;20244;-58
2022/12/05 12:59:29;;;;;;;12.23;4.75;;;6.30;99.90;;;;;;5086897;27;20039;-57
2022/12/05 13:02:10;;;;;;;16.92;5.90;;;6.40;99.90;;;;;;5098560;28;20122;-58
2022/12/05 13:05:11;;;;;;;15.20;5.53;;;6.40;99.90;;;;;;5101676;28;20036;-57
2022/12/05 13:07:46;;;;;;;14.55;5.88;;;6.40;99.90;;;;;;5097410;27;20070;-58
2022/12/05 13:10:36;;;;;;;14.68;5.75;;;6.40;99.90;;;;;;5113999;27;20299;-58
2022/12/05 13:13:05;;;;;;;11.40;4.35;;;6.40;99.90;;;;;;5115901;27;20045;-58
2022/12/05 13:15:34;;;;;;;14.35;5.30;;;6.40;99.90;;;;;;5095446;28;20581;-58
2022/12/05 13:18:02;;;;;;;13.20;4.40;;;6.30;99.90;;;;;;5090457;22;20028;-59
2022/12/05 13:20:31;;;;;;;11.63;4.43;;;6.30;99.90;;;;;;5070547;28;20036;-58
2022/12/05 13:22:58;;;;;;;11.02;4.75;;;6.30;99.90;;;;;;5075159;28;20510;-59